Time;durP1;ratioP1;P1;durP2;ratioP2;P2;SDS_P1;SDS_P2;PMS_P1;PMS_P2;Temp;Humidity;BMP_temperature;BMP_pressure;BME280_temperature;BME280_humidity;BME280_pressure;Samples;Min_cycle;Max_cycle;Signal;HPM_P1;HPM_P2
2022/11/01 00:01:41;;;;;;;53.05;26.38;;;15.30;99.90;;;;;;4991600;28;20100;-71
2022/11/01 00:04:07;;;;;;;57.97;28.02;;;15.30;99.90;;;;;;4991193;28;20038;-72
2022/11/01 00:06:34;;;;;;;56.45;26.30;;;15.30;99.90;;;;;;4991258;28;20037;-71
2022/11/01 00:08:59;;;;;;;53.88;29.58;;;15.40;99.90;;;;;;4990813;28;20105;-70
2022/11/01 00:11:25;;;;;;;56.83;28.20;;;15.40;99.90;;;;;;4991724;28;20113;-71
2022/11/01 00:13:51;;;;;;;53.35;26.38;;;15.30;99.90;;;;;;4991104;28;20033;-72
2022/11/01 00:16:18;;;;;;;52.67;26.25;;;15.30;99.90;;;;;;4991386;28;20362;-72
2022/11/01 00:18:44;;;;;;;48.72;24.83;;;15.30;99.90;;;;;;4991325;28;20039;-71
2022/11/01 00:21:11;;;;;;;54.30;25.83;;;15.40;99.90;;;;;;4991123;28;20022;-71
2022/11/01 00:23:38;;;;;;;48.97;25.52;;;15.40;99.90;;;;;;4991456;28;20034;-70
2022/11/01 00:26:04;;;;;;;48.30;24.75;;;15.30;99.90;;;;;;4990381;28;20030;-71
2022/11/01 00:28:31;;;;;;;46.60;24.85;;;15.30;99.90;;;;;;4991077;28;20031;-70
2022/11/01 00:30:57;;;;;;;50.70;25.33;;;15.20;99.90;;;;;;4991194;28;20474;-72
2022/11/01 00:33:23;;;;;;;55.75;25.15;;;15.30;99.90;;;;;;4991131;28;20045;-70
2022/11/01 00:35:49;;;;;;;52.53;25.13;;;15.20;99.90;;;;;;4991300;28;20047;-72
2022/11/01 00:38:16;;;;;;;52.45;26.20;;;15.20;99.90;;;;;;4990991;28;20484;-70
2022/11/01 00:40:43;;;;;;;48.83;25.58;;;15.10;99.90;;;;;;4991106;28;20034;-71
2022/11/01 00:43:10;;;;;;;49.20;26.10;;;15.20;99.90;;;;;;4989824;28;20443;-71
2022/11/01 00:45:35;;;;;;;48.47;25.80;;;15.20;99.90;;;;;;4991439;28;20026;-71
2022/11/01 00:48:01;;;;;;;56.03;26.20;;;15.00;99.90;;;;;;4990973;28;20102;-71
2022/11/01 00:50:27;;;;;;;53.00;26.52;;;15.10;99.90;;;;;;4991394;28;20026;-71
2022/11/01 00:52:52;;;;;;;52.00;25.80;;;15.00;99.90;;;;;;4990008;28;20042;-70
2022/11/01 00:55:18;;;;;;;56.45;25.80;;;15.00;99.90;;;;;;4990795;28;20416;-71
2022/11/01 00:57:44;;;;;;;46.63;24.25;;;15.00;99.90;;;;;;4990882;28;20368;-72
2022/11/01 01:00:12;;;;;;;53.70;25.35;;;15.00;99.90;;;;;;4989745;28;20023;-71
2022/11/01 01:02:37;;;;;;;130.02;63.38;;;15.00;99.90;;;;;;4991247;28;20057;-70
2022/11/01 01:05:05;;;;;;;102.18;50.30;;;15.00;99.90;;;;;;4989767;28;20027;-71
2022/11/01 01:07:30;;;;;;;71.03;32.33;;;15.10;99.90;;;;;;4989778;28;20165;-71
2022/11/01 01:09:56;;;;;;;54.75;26.25;;;15.00;99.90;;;;;;4990480;28;20526;-71
2022/11/01 01:12:22;;;;;;;53.78;25.17;;;15.00;99.90;;;;;;4990735;28;20038;-71
2022/11/01 01:14:47;;;;;;;51.53;25.25;;;15.00;99.90;;;;;;4990926;28;20034;-70
2022/11/01 01:17:13;;;;;;;56.95;25.33;;;15.00;99.90;;;;;;4992603;28;20053;-70
2022/11/01 01:19:39;;;;;;;53.95;25.67;;;15.10;99.90;;;;;;4994376;28;20045;-72
2022/11/01 01:22:05;;;;;;;53.75;25.13;;;15.10;99.90;;;;;;4994422;28;20180;-69
2022/11/01 01:24:31;;;;;;;49.58;25.88;;;15.10;99.90;;;;;;4994008;28;20038;-71
2022/11/01 01:26:57;;;;;;;52.15;24.88;;;15.10;99.90;;;;;;4994046;28;20026;-71
2022/11/01 01:29:23;;;;;;;48.35;24.23;;;15.00;99.90;;;;;;4993518;28;20032;-71
2022/11/01 01:31:49;;;;;;;53.85;25.20;;;15.00;99.90;;;;;;4994175;28;20118;-71
2022/11/01 01:34:16;;;;;;;52.47;24.85;;;15.00;99.90;;;;;;4994052;28;20042;-69
2022/11/01 01:36:41;;;;;;;49.42;24.13;;;15.00;99.90;;;;;;4994070;28;20109;-71
2022/11/01 01:39:08;;;;;;;48.28;25.20;;;14.90;99.90;;;;;;4992718;28;20125;-70
2022/11/01 01:44:46;;;;;;;53.80;25.13;;;14.90;99.90;;;;;;4993910;28;20105;-69
2022/11/01 01:47:25;;;;;;;62.38;25.70;;;14.90;99.90;;;;;;4993893;28;20069;-71
2022/11/01 01:50:06;;;;;;;56.78;25.63;;;14.90;99.90;;;;;;4994012;28;20038;-71
2022/11/01 01:52:37;;;;;;;50.67;25.25;;;14.90;99.90;;;;;;4992884;28;20251;-71
2022/11/01 01:55:08;;;;;;;54.00;24.90;;;14.90;99.90;;;;;;4993725;28;20534;-70
2022/11/01 01:57:35;;;;;;;43.20;22.88;;;14.90;99.90;;;;;;4993516;28;20171;-70
2022/11/01 02:00:01;;;;;;;51.72;24.67;;;14.90;99.90;;;;;;4993607;28;20058;-71
2022/11/01 02:02:27;;;;;;;53.67;23.63;;;14.90;99.90;;;;;;4994107;28;20156;-71
2022/11/01 02:05:01;;;;;;;50.53;24.85;;;14.90;99.90;;;;;;4992626;28;20091;-70
2022/11/01 02:07:27;;;;;;;45.72;22.50;;;14.90;99.90;;;;;;4993817;28;20045;-70
2022/11/01 02:09:54;;;;;;;50.40;24.25;;;14.90;99.90;;;;;;4992155;28;20050;-71
2022/11/01 02:12:23;;;;;;;47.22;24.63;;;14.90;99.90;;;;;;4992279;28;20030;-70
2022/11/01 02:14:49;;;;;;;49.30;23.60;;;14.90;99.90;;;;;;4992631;28;20038;-71
2022/11/01 02:17:39;;;;;;;51.78;23.75;;;14.90;99.90;;;;;;4993295;28;20027;-71
2022/11/01 02:20:05;;;;;;;42.70;22.27;;;14.90;99.90;;;;;;4992473;28;20042;-70
2022/11/01 02:22:46;;;;;;;44.35;22.70;;;14.90;99.90;;;;;;4992191;28;20042;-70
2022/11/01 02:25:51;;;;;;;47.92;22.70;;;14.90;99.90;;;;;;4993209;28;20034;-69
2022/11/01 02:28:28;;;;;;;48.67;23.27;;;14.90;99.90;;;;;;4992737;28;20113;-71
2022/11/01 02:31:31;;;;;;;47.22;22.50;;;14.90;99.90;;;;;;4993195;28;20034;-70
2022/11/01 02:34:06;;;;;;;50.38;23.42;;;14.90;99.90;;;;;;4993271;28;20046;-71
2022/11/01 02:36:43;;;;;;;46.72;23.33;;;14.90;99.90;;;;;;4991604;28;20538;-72
2022/11/01 02:39:14;;;;;;;55.87;25.40;;;14.90;99.90;;;;;;4992998;28;20022;-71
2022/11/01 02:42:21;;;;;;;53.85;25.10;;;14.90;99.90;;;;;;4993421;28;20485;-72
2022/11/01 02:44:57;;;;;;;48.08;23.63;;;14.90;99.90;;;;;;4948917;28;20404;-72
2022/11/01 02:47:24;;;;;;;48.20;23.70;;;14.90;99.90;;;;;;4993182;28;20122;-71
2022/11/01 02:49:58;;;;;;;49.25;23.27;;;14.90;99.90;;;;;;4991591;28;20041;-71
2022/11/01 02:52:26;;;;;;;45.42;23.83;;;14.90;99.90;;;;;;4992707;28;20027;-71
2022/11/01 02:54:56;;;;;;;54.20;23.80;;;14.90;99.90;;;;;;4991292;28;20445;-71
2022/11/01 02:57:29;;;;;;;56.10;24.63;;;14.80;99.90;;;;;;4991524;28;20026;-71
2022/11/01 03:00:02;;;;;;;50.33;23.80;;;14.90;99.90;;;;;;4992518;28;20036;-72
2022/11/01 03:02:43;;;;;;;49.75;24.85;;;14.80;99.90;;;;;;4992825;28;20510;-71
2022/11/01 03:05:25;;;;;;;53.17;24.83;;;14.80;99.90;;;;;;4992328;28;20495;-71
2022/11/01 03:07:56;;;;;;;47.28;22.65;;;14.90;99.90;;;;;;4992385;28;20019;-71
2022/11/01 03:10:32;;;;;;;50.97;23.10;;;14.80;99.90;;;;;;4992064;28;20370;-70
2022/11/01 03:13:12;;;;;;;51.30;24.60;;;14.80;99.90;;;;;;4992373;28;20034;-71
2022/11/01 03:15:50;;;;;;;61.13;23.23;;;14.80;99.90;;;;;;4992375;28;20498;-71
2022/11/01 03:18:44;;;;;;;48.65;23.50;;;14.80;99.90;;;;;;4991277;28;20495;-71
2022/11/01 03:21:18;;;;;;;49.15;23.38;;;14.80;99.90;;;;;;4988277;28;20037;-71
2022/11/01 03:24:03;;;;;;;54.70;22.92;;;14.80;99.90;;;;;;4992674;28;20030;-71
2022/11/01 03:26:33;;;;;;;52.55;21.88;;;14.80;99.90;;;;;;4992179;28;20041;-72
2022/11/01 03:29:04;;;;;;;46.28;23.08;;;14.80;99.90;;;;;;4992179;28;20069;-70
2022/11/01 03:31:32;;;;;;;48.30;23.27;;;14.80;99.90;;;;;;4992388;28;20119;-68
2022/11/01 03:34:10;;;;;;;42.20;23.00;;;14.80;99.90;;;;;;4992225;28;20034;-70
2022/11/01 03:36:41;;;;;;;51.90;24.27;;;14.80;99.90;;;;;;4992126;28;20027;-69
2022/11/01 03:39:24;;;;;;;42.75;21.42;;;14.80;99.90;;;;;;4991323;28;20526;-69
2022/11/01 03:41:54;;;;;;;48.58;23.20;;;14.80;99.90;;;;;;4991201;28;20062;-70
2022/11/01 03:44:20;;;;;;;50.90;22.60;;;14.80;99.90;;;;;;4991906;28;20038;-70
2022/11/01 03:46:46;;;;;;;49.15;23.70;;;14.80;99.90;;;;;;4990681;28;20030;-69
2022/11/01 03:49:21;;;;;;;42.80;20.30;;;14.80;99.90;;;;;;4991801;28;20030;-69
2022/11/01 03:51:47;;;;;;;54.15;22.20;;;14.80;99.90;;;;;;4991948;28;20045;-70
2022/11/01 03:54:13;;;;;;;43.30;20.35;;;14.80;99.90;;;;;;4990423;28;20030;-70
2022/11/01 03:56:42;;;;;;;48.17;21.50;;;14.90;99.90;;;;;;4992022;28;20440;-69
2022/11/01 03:59:09;;;;;;;48.08;20.42;;;14.90;99.90;;;;;;4991705;28;20053;-70
2022/11/01 04:01:35;;;;;;;46.13;21.15;;;14.90;99.90;;;;;;4991612;28;20037;-71
2022/11/01 04:04:01;;;;;;;38.47;19.05;;;14.90;99.90;;;;;;4990413;28;20045;-71
2022/11/01 04:06:27;;;;;;;53.10;20.98;;;15.00;99.90;;;;;;4990555;28;20030;-70
2022/11/01 04:08:52;;;;;;;44.05;18.77;;;15.00;99.90;;;;;;4990749;28;20125;-71
2022/11/01 04:11:18;;;;;;;41.88;20.45;;;15.00;99.90;;;;;;4991272;28;20460;-69
2022/11/01 04:13:46;;;;;;;43.70;19.77;;;15.00;99.90;;;;;;4990477;28;20026;-71
2022/11/01 04:21:41;;;;;;;34.20;18.00;;;15.10;99.90;;;;;;4991554;28;20096;-70
2022/11/01 04:24:07;;;;;;;43.13;18.20;;;15.10;99.90;;;;;;4990119;28;20030;-72
2022/11/01 04:26:34;;;;;;;41.80;18.17;;;15.10;99.90;;;;;;4990688;28;20026;-70
2022/11/01 04:28:59;;;;;;;37.42;19.13;;;15.20;99.90;;;;;;4991203;28;20038;-72
2022/11/01 04:31:35;;;;;;;38.70;17.38;;;15.20;99.90;;;;;;4991189;28;20408;-70
2022/11/01 04:34:03;;;;;;;31.73;16.05;;;15.20;99.90;;;;;;4991076;28;20034;-70
2022/11/01 04:36:29;;;;;;;34.90;17.65;;;15.20;99.90;;;;;;4991092;28;20034;-72
2022/11/01 04:38:56;;;;;;;31.98;16.58;;;15.20;99.90;;;;;;4991237;28;20030;-71
2022/11/01 04:41:26;;;;;;;41.47;17.13;;;15.30;99.90;;;;;;4991408;28;20424;-71
2022/11/01 04:43:54;;;;;;;42.33;17.83;;;15.30;99.90;;;;;;4990015;28;20048;-71
2022/11/01 04:46:20;;;;;;;37.70;17.38;;;15.30;99.90;;;;;;4990943;28;20097;-71
2022/11/01 04:48:46;;;;;;;35.53;16.35;;;15.30;99.90;;;;;;4990948;28;20053;-72
2022/11/01 04:51:12;;;;;;;36.47;17.02;;;15.30;99.90;;;;;;4991271;28;20034;-72
2022/11/01 04:53:38;;;;;;;32.92;16.20;;;15.40;99.90;;;;;;4994176;28;20030;-70
2022/11/01 04:56:05;;;;;;;33.10;16.30;;;15.40;99.90;;;;;;4994851;28;20133;-71
2022/11/01 04:58:33;;;;;;;38.15;16.00;;;15.40;99.90;;;;;;4994668;28;20534;-72
2022/11/01 05:01:02;;;;;;;37.83;16.85;;;15.40;99.90;;;;;;4994883;28;20035;-71
2022/11/01 05:03:28;;;;;;;34.50;16.38;;;15.40;99.90;;;;;;4993516;28;20113;-72
2022/11/01 05:05:54;;;;;;;32.47;15.80;;;15.50;99.90;;;;;;4995119;28;20109;-71
2022/11/01 05:08:19;;;;;;;34.85;15.27;;;15.40;99.90;;;;;;4994383;28;20037;-71
2022/11/01 05:10:45;;;;;;;28.08;14.82;;;15.40;99.90;;;;;;4994311;28;20051;-72
2022/11/01 05:13:12;;;;;;;31.55;14.30;;;15.40;99.90;;;;;;4993116;28;20080;-71
2022/11/01 05:15:38;;;;;;;33.22;14.95;;;15.50;99.90;;;;;;4994527;28;20617;-73
2022/11/01 05:18:04;;;;;;;30.45;14.85;;;15.50;99.90;;;;;;4994491;28;20372;-73
2022/11/01 05:20:30;;;;;;;33.75;14.75;;;15.50;99.90;;;;;;4994846;28;20040;-73
2022/11/01 05:23:01;;;;;;;31.30;14.38;;;15.50;99.90;;;;;;4994200;28;20488;-71
2022/11/01 05:25:27;;;;;;;35.03;13.75;;;15.50;99.90;;;;;;4994607;28;20043;-72
2022/11/01 05:28:02;;;;;;;37.03;13.77;;;15.50;99.90;;;;;;4994193;28;20412;-71
2022/11/01 05:30:27;;;;;;;29.73;12.77;;;15.60;99.90;;;;;;4994021;28;20117;-72
2022/11/01 05:32:58;;;;;;;25.75;12.40;;;15.60;99.90;;;;;;4994485;28;20110;-71
2022/11/01 05:35:24;;;;;;;27.98;12.90;;;15.60;99.90;;;;;;4992792;28;20494;-72
2022/11/01 05:37:50;;;;;;;28.27;12.20;;;15.60;99.90;;;;;;4994115;28;20035;-72
2022/11/01 05:40:16;;;;;;;32.67;12.13;;;15.70;99.90;;;;;;4993788;28;20053;-73
2022/11/01 05:42:42;;;;;;;25.65;11.15;;;15.70;99.90;;;;;;4992658;28;20034;-72
2022/11/01 05:45:09;;;;;;;23.30;10.60;;;15.70;99.90;;;;;;4994050;28;20026;-72
2022/11/01 05:47:35;;;;;;;32.60;10.35;;;15.80;99.90;;;;;;4994339;28;20034;-72
2022/11/01 05:50:01;;;;;;;21.92;9.48;;;15.80;99.90;;;;;;4994220;28;20037;-72
2022/11/01 05:52:26;;;;;;;22.73;9.07;;;15.90;99.90;;;;;;4993904;28;20053;-73
2022/11/01 05:54:52;;;;;;;24.70;9.27;;;15.90;99.90;;;;;;4993693;28;20042;-72
2022/11/01 05:57:17;;;;;;;20.38;9.35;;;15.90;99.90;;;;;;4993812;28;20080;-73
2022/11/01 05:59:43;;;;;;;18.27;8.18;;;16.00;99.90;;;;;;4993816;28;20471;-73
2022/11/01 06:02:09;;;;;;;22.45;9.00;;;16.00;99.90;;;;;;4993003;28;20245;-72
2022/11/01 06:04:35;;;;;;;17.77;7.53;;;16.10;99.90;;;;;;4993292;28;20038;-73
2022/11/01 06:07:00;;;;;;;15.23;7.18;;;16.10;99.90;;;;;;4993406;28;20464;-70
2022/11/01 06:09:26;;;;;;;13.88;6.75;;;16.10;99.90;;;;;;4993029;28;20074;-72
2022/11/01 06:11:52;;;;;;;15.88;6.50;;;16.20;99.90;;;;;;4993938;28;20026;-72
2022/11/01 06:14:17;;;;;;;18.25;6.47;;;16.30;99.90;;;;;;4992270;28;20396;-72
2022/11/01 06:16:44;;;;;;;15.02;6.38;;;16.30;99.90;;;;;;4993115;28;20026;-72
2022/11/01 06:19:09;;;;;;;17.17;6.35;;;16.30;99.90;;;;;;4993526;28;20141;-72
2022/11/01 06:21:35;;;;;;;18.20;5.85;;;16.40;99.90;;;;;;4993449;28;20516;-72
2022/11/01 06:24:01;;;;;;;15.48;5.80;;;16.40;99.90;;;;;;4993123;28;20444;-71
2022/11/01 06:26:26;;;;;;;12.02;5.45;;;16.50;99.90;;;;;;4979244;28;20062;-71
2022/11/01 06:28:52;;;;;;;18.05;6.20;;;16.50;99.90;;;;;;4984479;28;20043;-73
2022/11/01 06:31:18;;;;;;;13.23;5.10;;;16.60;99.90;;;;;;4973677;28;20031;-72
2022/11/01 06:33:43;;;;;;;15.13;5.75;;;16.60;99.90;;;;;;4973327;28;20035;-72
2022/11/01 06:36:09;;;;;;;12.15;5.38;;;16.60;99.90;;;;;;4973689;28;20027;-72
2022/11/01 06:38:35;;;;;;;18.42;5.43;;;16.70;99.90;;;;;;4973944;28;20181;-72
2022/11/01 06:41:00;;;;;;;14.35;5.07;;;16.70;99.90;;;;;;4973248;28;20034;-72
2022/11/01 06:43:26;;;;;;;16.50;5.53;;;16.70;99.90;;;;;;4973440;28;20039;-72
2022/11/01 06:45:52;;;;;;;17.48;5.65;;;16.80;99.90;;;;;;4973297;28;20113;-72
2022/11/01 06:48:18;;;;;;;14.50;5.20;;;16.80;99.90;;;;;;4973547;28;20031;-71
2022/11/01 06:50:43;;;;;;;11.52;5.20;;;16.80;99.90;;;;;;4972883;28;20019;-70
2022/11/01 06:53:09;;;;;;;18.33;5.38;;;16.80;99.90;;;;;;4973494;28;20334;-72
2022/11/01 06:55:34;;;;;;;10.05;4.80;;;16.90;99.90;;;;;;4973400;28;20520;-73
2022/11/01 06:58:04;;;;;;;14.02;5.53;;;16.90;99.90;;;;;;4972055;28;20035;-74
2022/11/01 07:00:30;;;;;;;17.45;5.15;;;16.90;99.90;;;;;;4971886;28;20039;-74
2022/11/01 07:03:04;;;;;;;14.18;5.38;;;17.00;99.90;;;;;;4972929;28;20101;-74
2022/11/01 07:05:32;;;;;;;10.30;5.00;;;17.00;99.90;;;;;;4973320;28;20111;-74
2022/11/01 07:07:59;;;;;;;;;;;17.00;99.90;;;;;;4973176;28;20240;-73
2022/11/01 07:10:26;;;;;;;14.07;5.20;;;17.00;99.90;;;;;;4972172;28;20085;-74
2022/11/01 07:13:00;;;;;;;10.50;5.10;;;17.00;99.90;;;;;;4972413;28;20031;-74
2022/11/01 07:15:26;;;;;;;12.20;5.00;;;17.10;99.90;;;;;;4972633;28;20042;-74
2022/11/01 07:17:59;;;;;;;13.10;5.53;;;17.10;99.90;;;;;;4973261;28;20026;-74
2022/11/01 07:20:26;;;;;;;11.55;5.15;;;17.10;99.90;;;;;;4990097;28;20468;-74
2022/11/01 07:22:57;;;;;;;10.20;4.70;;;17.10;99.90;;;;;;4972312;28;20036;-74
2022/11/01 07:25:22;;;;;;;16.10;4.82;;;17.10;99.90;;;;;;4987494;28;20035;-73
2022/11/01 07:27:48;;;;;;;20.15;5.63;;;17.20;99.90;;;;;;4972679;28;20043;-74
2022/11/01 07:30:14;;;;;;;13.20;4.68;;;17.20;99.90;;;;;;4972544;28;20782;-74
2022/11/01 07:32:39;;;;;;;26.63;5.22;;;17.20;99.90;;;;;;4972703;28;20041;-74
2022/11/01 07:35:05;;;;;;;20.00;5.70;;;17.20;99.90;;;;;;4972248;28;20031;-73
2022/11/01 07:37:31;;;;;;;16.30;5.70;;;17.20;99.90;;;;;;4971272;28;20359;-71
2022/11/01 07:39:57;;;;;;;11.15;4.22;;;17.20;99.90;;;;;;4972283;28;20046;-72
2022/11/01 07:42:22;;;;;;;11.80;4.40;;;17.30;99.90;;;;;;4972380;28;20038;-71
2022/11/01 07:44:48;;;;;;;11.88;5.55;;;17.30;99.90;;;;;;4972942;28;20061;-72
2022/11/01 07:47:14;;;;;;;14.48;4.82;;;17.30;99.90;;;;;;4972242;28;20245;-72
2022/11/01 07:49:40;;;;;;;11.68;4.75;;;17.30;99.90;;;;;;4972343;28;20117;-72
2022/11/01 07:52:05;;;;;;;15.60;5.45;;;17.30;99.90;;;;;;4971871;28;20035;-71
2022/11/01 07:54:31;;;;;;;12.82;5.35;;;17.30;99.90;;;;;;4972199;28;20034;-71
2022/11/01 07:56:56;;;;;;;14.82;5.18;;;17.30;99.90;;;;;;4971868;28;20186;-70
2022/11/01 07:59:22;;;;;;;10.50;4.57;;;17.40;99.90;;;;;;4972565;28;20116;-73
2022/11/01 08:01:48;;;;;;;12.82;4.80;;;17.40;99.90;;;;;;4972169;28;20373;-72
2022/11/01 08:04:13;;;;;;;17.70;5.60;;;17.40;99.90;;;;;;4971826;28;20030;-71
2022/11/01 08:06:39;;;;;;;12.57;4.90;;;17.40;99.90;;;;;;4971947;28;20058;-71
2022/11/01 08:09:05;;;;;;;35.35;15.60;;;17.50;99.90;;;;;;4971783;28;20046;-72
2022/11/01 08:11:31;;;;;;;33.25;16.33;;;17.50;99.90;;;;;;4972520;28;20034;-70
2022/11/01 08:13:56;;;;;;;11.98;5.32;;;17.50;99.90;;;;;;4971839;28;20043;-72
2022/11/01 08:16:22;;;;;;;9.23;4.60;;;17.50;99.90;;;;;;4971753;28;20388;-71
2022/11/01 08:18:49;;;;;;;16.67;4.60;;;17.50;99.90;;;;;;4971648;28;20089;-71
2022/11/01 08:21:17;;;;;;;14.60;5.20;;;17.50;99.90;;;;;;4971655;28;20051;-70
2022/11/01 08:23:46;;;;;;;12.45;4.32;;;17.50;99.90;;;;;;4972158;28;20031;-72
2022/11/01 08:26:11;;;;;;;18.75;4.65;;;17.50;99.90;;;;;;4971171;28;20039;-72
2022/11/01 08:28:37;;;;;;;10.77;4.50;;;17.50;99.90;;;;;;4971823;28;20058;-72
2022/11/01 08:31:08;;;;;;;12.27;4.50;;;17.60;99.90;;;;;;4970422;28;20519;-71
2022/11/01 08:33:34;;;;;;;20.40;8.82;;;17.60;99.90;;;;;;4971594;28;20127;-72
2022/11/01 08:36:00;;;;;;;20.67;10.27;;;17.60;99.90;;;;;;4971589;28;20106;-72
2022/11/01 08:38:26;;;;;;;9.48;5.18;;;17.70;99.90;;;;;;4972135;28;20090;-74
2022/11/01 08:40:52;;;;;;;11.20;4.28;;;17.70;99.90;;;;;;4970410;28;20119;-72
2022/11/01 08:43:18;;;;;;;7.82;3.90;;;17.70;99.90;;;;;;4971355;28;20534;-72
2022/11/01 08:45:44;;;;;;;9.05;4.95;;;17.80;99.90;;;;;;4971464;28;20086;-71
2022/11/01 08:48:10;;;;;;;12.25;4.88;;;17.80;99.90;;;;;;4970514;28;20030;-73
2022/11/01 08:50:37;;;;;;;13.55;4.45;;;17.80;99.90;;;;;;4971950;28;20461;-72
2022/11/01 08:53:07;;;;;;;7.07;4.00;;;17.80;99.90;;;;;;4971455;28;20556;-73
2022/11/01 08:55:34;;;;;;;12.38;4.47;;;17.80;99.90;;;;;;4971358;28;20473;-70
2022/11/01 08:58:01;;;;;;;13.95;4.57;;;17.90;99.90;;;;;;4971317;28;20042;-71
2022/11/01 09:00:27;;;;;;;11.68;4.03;;;17.90;99.90;;;;;;4971268;28;20039;-71
2022/11/01 09:02:53;;;;;;;10.05;4.38;;;18.00;99.90;;;;;;4971988;28;20139;-72
2022/11/01 09:05:18;;;;;;;12.88;4.28;;;18.00;99.90;;;;;;4971600;28;20031;-73
2022/11/01 09:07:44;;;;;;;11.25;4.43;;;18.10;99.90;;;;;;4970161;28;20381;-71
2022/11/01 09:10:11;;;;;;;12.00;4.38;;;18.20;99.90;;;;;;4971389;28;20055;-70
2022/11/01 09:12:37;;;;;;;12.43;4.50;;;18.20;99.90;;;;;;4971371;28;20377;-70
2022/11/01 09:15:04;;;;;;;10.38;4.65;;;18.30;99.90;;;;;;4971189;28;20097;-70
2022/11/01 09:17:30;;;;;;;13.82;4.00;;;18.30;99.90;;;;;;4971773;28;20015;-71
2022/11/01 09:19:56;;;;;;;7.22;3.85;;;18.30;99.90;;;;;;4971157;28;20031;-72
2022/11/01 09:22:22;;;;;;;9.23;4.20;;;18.30;99.90;;;;;;4971131;28;20053;-72
2022/11/01 09:24:48;;;;;;;11.13;3.90;;;18.30;99.90;;;;;;4971248;28;20062;-71
2022/11/01 09:27:13;;;;;;;8.85;4.07;;;18.30;99.90;;;;;;4971355;28;20372;-71
2022/11/01 09:29:39;;;;;;;8.88;3.83;;;18.30;99.90;;;;;;4971856;28;20425;-71
2022/11/01 09:32:08;;;;;;;11.07;3.88;;;18.30;99.90;;;;;;4971200;28;20102;-71
2022/11/01 09:34:34;;;;;;;11.60;4.00;;;18.30;99.90;;;;;;4971086;28;20042;-71
2022/11/01 09:37:00;;;;;;;13.27;4.43;;;18.30;99.90;;;;;;4970984;28;20424;-72
2022/11/01 09:39:26;;;;;;;10.57;3.88;;;18.30;99.90;;;;;;4973946;28;20290;-71
2022/11/01 09:42:03;;;;;;;7.07;4.30;;;18.30;99.90;;;;;;4974879;28;20077;-71
2022/11/01 09:44:35;;;;;;;8.68;3.53;;;18.30;99.90;;;;;;4974911;28;20034;-71
2022/11/01 09:47:07;;;;;;;10.02;3.83;;;18.40;99.90;;;;;;4974369;28;20035;-71
2022/11/01 09:49:37;;;;;;;8.57;3.75;;;18.40;99.90;;;;;;4974299;28;20042;-72
2022/11/01 09:52:05;;;;;;;10.18;4.07;;;18.40;99.90;;;;;;4974350;28;20050;-71
2022/11/01 09:54:31;;;;;;;8.07;4.47;;;18.40;99.90;;;;;;4974265;28;20058;-71
2022/11/01 09:57:14;;;;;;;9.82;3.78;;;18.40;99.90;;;;;;4974209;28;20030;-73
2022/11/01 09:59:55;;;;;;;11.98;4.18;;;18.50;99.90;;;;;;4974871;28;20141;-71
2022/11/01 10:02:39;;;;;;;12.40;4.18;;;18.50;99.90;;;;;;4974159;28;20042;-74
2022/11/01 10:05:38;;;;;;;9.15;4.15;;;18.50;99.90;;;;;;4974216;28;20027;-71
2022/11/01 10:08:09;;;;;;;9.35;3.20;;;18.50;99.90;;;;;;4973881;28;20030;-71
2022/11/01 10:10:38;;;;;;;10.98;3.92;;;18.40;99.50;;;;;;4973659;28;20105;-72
2022/11/01 10:13:22;;;;;;;7.82;3.63;;;18.50;99.60;;;;;;4989090;28;20034;-72
2022/11/01 10:16:10;;;;;;;13.75;4.07;;;18.60;99.60;;;;;;4973690;28;20141;-71
2022/11/01 10:18:50;;;;;;;54.33;29.85;;;19.00;99.20;;;;;;4973643;28;20460;-72
2022/11/01 10:21:18;;;;;;;29.02;15.23;;;19.20;99.30;;;;;;4973649;28;20055;-71
2022/11/01 10:23:52;;;;;;;11.13;3.75;;;19.20;98.60;;;;;;4972964;28;20031;-71
2022/11/01 10:26:43;;;;;;;10.30;2.90;;;19.00;99.00;;;;;;4973775;28;20101;-71
2022/11/01 10:29:20;;;;;;;9.02;3.05;;;19.00;98.60;;;;;;4973812;28;20105;-72
2022/11/01 10:31:51;;;;;;;5.05;2.67;;;18.90;98.00;;;;;;4973921;28;20031;-72
2022/11/01 10:34:24;;;;;;;6.35;2.03;;;18.90;97.90;;;;;;4973643;28;20432;-71
2022/11/01 10:36:51;;;;;;;5.00;2.10;;;19.50;97.00;;;;;;4973421;28;20101;-73
2022/11/01 10:39:55;;;;;;;5.93;2.00;;;20.10;96.50;;;;;;4973497;28;20055;-72
2022/11/01 10:42:21;;;;;;;3.65;1.80;;;21.20;95.10;;;;;;4894941;29;20363;-72
2022/11/01 10:44:54;;;;;;;11.95;2.85;;;21.70;94.10;;;;;;4895208;29;20040;-72
2022/11/01 10:47:22;;;;;;;4.75;1.73;;;22.10;92.30;;;;;;4935263;28;20038;-73
2022/11/01 10:49:50;;;;;;;;;;;22.00;91.30;;;;;;4973445;28;20039;-72
2022/11/01 10:52:20;;;;;;;3.00;1.38;;;21.90;91.10;;;;;;4973306;28;19973;-75
2022/11/01 10:54:48;;;;;;;15.20;1.58;;;22.10;91.20;;;;;;4973239;28;20228;-73
2022/11/01 10:57:37;;;;;;;6.15;1.40;;;22.50;88.30;;;;;;4973411;28;20884;-73
2022/11/01 11:00:06;;;;;;;4.95;1.02;;;22.30;86.70;;;;;;4973126;28;20040;-73
2022/11/01 11:02:43;;;;;;;2.92;1.60;;;22.70;86.00;;;;;;4973408;28;20050;-74
2022/11/01 11:05:13;;;;;;;9.07;1.10;;;22.80;84.30;;;;;;4973412;28;20118;-72
2022/11/01 11:07:40;;;;;;;3.35;1.20;;;23.70;82.70;;;;;;4973125;28;20027;-74
2022/11/01 11:10:18;;;;;;;4.78;1.23;;;23.70;78.40;;;;;;4972244;28;20134;-75
2022/11/01 11:12:46;;;;;;;4.63;1.23;;;23.60;81.30;;;;;;4972930;28;20045;-73
2022/11/01 11:15:27;;;;;;;5.57;1.25;;;24.40;80.50;;;;;;4972758;28;20518;-73
2022/11/01 11:17:58;;;;;;;3.53;1.58;;;25.40;76.60;;;;;;4973383;28;20027;-74
2022/11/01 11:20:25;;;;;;;2.08;1.10;;;25.30;74.40;;;;;;4988095;28;20042;-73
2022/11/01 11:22:51;;;;;;;2.75;1.08;;;25.60;73.30;;;;;;4972681;28;20082;-75
2022/11/01 11:25:20;;;;;;;3.83;1.17;;;25.50;71.10;;;;;;4972603;28;20365;-76
2022/11/01 11:27:48;;;;;;;3.40;0.90;;;24.70;72.80;;;;;;4987690;28;20093;-76
2022/11/01 11:30:26;;;;;;;3.00;1.25;;;24.80;71.10;;;;;;4972732;28;20386;-77
2022/11/01 11:32:52;;;;;;;3.03;1.15;;;25.10;69.70;;;;;;4973002;28;20015;-75
2022/11/01 11:35:23;;;;;;;6.70;1.20;;;24.50;68.10;;;;;;4972396;28;20035;-75
2022/11/01 11:37:59;;;;;;;5.88;1.30;;;24.00;70.70;;;;;;4972480;28;20102;-75
2022/11/01 11:40:46;;;;;;;7.22;1.20;;;23.40;68.50;;;;;;4972151;28;20093;-76
2022/11/01 11:43:30;;;;;;;4.60;1.48;;;22.90;66.20;;;;;;4971801;28;20118;-73
2022/11/01 11:46:13;;;;;;;14.90;1.95;;;23.10;68.40;;;;;;4972164;28;20041;-73
2022/11/01 11:48:58;;;;;;;6.65;1.58;;;22.70;68.60;;;;;;4972210;28;20090;-74
2022/11/01 11:51:29;;;;;;;5.28;1.00;;;22.70;66.20;;;;;;4972154;28;20037;-74
2022/11/01 11:54:16;;;;;;;7.00;1.20;;;22.10;63.30;;;;;;4972124;28;20022;-72
2022/11/01 11:56:43;;;;;;;5.78;1.30;;;22.00;66.00;;;;;;4972526;28;20014;-74
2022/11/01 11:59:26;;;;;;;6.15;1.27;;;22.00;64.60;;;;;;4971873;28;20038;-74
2022/11/01 12:01:58;;;;;;;7.82;1.55;;;21.50;64.80;;;;;;4971431;28;20038;-71
2022/11/01 12:04:30;;;;;;;10.45;1.73;;;21.80;66.90;;;;;;4972068;28;20035;-73
2022/11/01 12:06:55;;;;;;;4.88;1.10;;;21.50;64.80;;;;;;4972052;28;20039;-73
2022/11/01 12:09:46;;;;;;;6.20;1.75;;;21.30;63.60;;;;;;4971658;28;20043;-73
2022/11/01 12:12:26;;;;;;;9.00;1.75;;;21.50;65.20;;;;;;4971785;28;20035;-74
2022/11/01 12:14:53;;;;;;;7.22;1.95;;;21.10;64.90;;;;;;4972361;28;20115;-74
2022/11/01 12:17:34;;;;;;;4.87;1.23;;;21.00;65.20;;;;;;4972200;28;20027;-73
2022/11/01 12:20:13;;;;;;;7.95;2.20;;;21.00;66.80;;;;;;4987026;28;20477;-72
2022/11/01 12:23:11;;;;;;;3.50;1.05;;;21.20;65.80;;;;;;4986930;28;20057;-71
2022/11/01 12:25:39;;;;;;;9.48;1.85;;;21.30;66.60;;;;;;4954677;28;20115;-72
2022/11/01 12:28:24;;;;;;;8.50;1.48;;;21.30;65.30;;;;;;4971585;28;20030;-74
2022/11/01 12:30:55;;;;;;;9.85;1.85;;;20.90;65.50;;;;;;4972102;28;20062;-72
2022/11/01 12:34:06;;;;;;;9.15;1.55;;;21.00;65.40;;;;;;4986837;28;20081;-72
2022/11/01 12:36:43;;;;;;;9.23;2.13;;;20.70;64.80;;;;;;4948975;28;20031;-74
2022/11/01 12:39:42;;;;;;;3.67;1.55;;;20.90;66.20;;;;;;4971515;28;20452;-74
2022/11/01 12:42:17;;;;;;;7.57;1.92;;;20.90;65.50;;;;;;4971911;28;20087;-74
2022/11/01 12:44:50;;;;;;;7.25;1.60;;;20.70;65.50;;;;;;4972090;28;20476;-73
2022/11/01 12:47:25;;;;;;;11.68;2.20;;;20.50;65.80;;;;;;4970390;28;20031;-72
2022/11/01 12:50:14;;;;;;;6.78;1.33;;;20.60;67.10;;;;;;4971507;28;20471;-72
2022/11/01 12:53:14;;;;;;;8.82;3.30;;;20.60;67.10;;;;;;4971525;28;20425;-72
2022/11/01 12:55:41;;;;;;;11.02;4.25;;;20.60;67.30;;;;;;4946034;28;20035;-73
2022/11/01 12:58:18;;;;;;;11.32;3.72;;;20.70;66.90;;;;;;4971518;28;20042;-74
2022/11/01 13:01:12;;;;;;;3.45;1.20;;;20.80;68.10;;;;;;4971405;28;20042;-76